Time;durP1;ratioP1;P1;durP2;ratioP2;P2;SDS_P1;SDS_P2;PMS_P1;PMS_P2;Temp;Humidity;BMP_temperature;BMP_pressure;BME280_temperature;BME280_humidity;BME280_pressure;Samples;Min_cycle;Max_cycle;Signal;HPM_P1;HPM_P2
2022/07/13 00:00:53;;;;;;;2.30;0.85;;;19.80;61.60;;;;;;4996614;28;20065;-65
2022/07/13 00:03:20;;;;;;;2.05;0.73;;;19.80;61.70;;;;;;4998068;28;20036;-64
2022/07/13 00:05:47;;;;;;;1.67;0.60;;;19.80;61.40;;;;;;5001148;28;20054;-62
2022/07/13 00:08:13;;;;;;;1.90;0.73;;;19.90;61.00;;;;;;4998949;28;20052;-64
2022/07/13 00:10:42;;;;;;;2.38;0.85;;;19.90;61.10;;;;;;5000764;28;20422;-63
2022/07/13 00:13:09;;;;;;;4.22;0.80;;;19.80;61.10;;;;;;4997471;28;20047;-63
2022/07/13 00:15:35;;;;;;;1.95;1.17;;;19.80;61.10;;;;;;4996220;28;20046;-62
2022/07/13 00:18:02;;;;;;;2.42;0.70;;;19.80;61.00;;;;;;5000415;28;20049;-65
2022/07/13 00:20:29;;;;;;;3.28;0.98;;;19.80;60.90;;;;;;5002143;28;20046;-63
2022/07/13 00:22:56;;;;;;;2.83;0.60;;;19.80;60.80;;;;;;5001630;28;20056;-62
2022/07/13 00:25:23;;;;;;;3.10;0.90;;;19.80;61.00;;;;;;5001915;28;20484;-63
2022/07/13 00:27:51;;;;;;;1.20;0.70;;;19.80;61.10;;;;;;5002405;28;20058;-64
2022/07/13 00:30:19;;;;;;;0.90;0.60;;;19.70;61.20;;;;;;4999487;28;20054;-61
2022/07/13 00:32:46;;;;;;;1.67;0.68;;;19.70;61.40;;;;;;4990583;28;20050;-63
2022/07/13 00:35:13;;;;;;;2.17;0.75;;;19.60;61.70;;;;;;4998034;28;20137;-66
2022/07/13 00:37:40;;;;;;;0.70;0.50;;;19.70;61.90;;;;;;4974977;28;20077;-61
2022/07/13 00:40:08;;;;;;;1.52;0.60;;;19.60;62.10;;;;;;4974494;28;20050;-61
2022/07/13 00:42:35;;;;;;;3.72;0.73;;;19.60;62.10;;;;;;4988510;28;20042;-61
2022/07/13 00:45:04;;;;;;;2.00;0.68;;;19.60;62.10;;;;;;4975686;28;20141;-62
2022/07/13 00:47:33;;;;;;;1.60;0.70;;;19.60;62.10;;;;;;4990985;28;20120;-62
2022/07/13 00:50:01;;;;;;;2.03;0.60;;;19.60;62.10;;;;;;4989999;28;20050;-63
2022/07/13 00:52:30;;;;;;;1.83;0.88;;;19.60;62.00;;;;;;4975454;28;20090;-65
2022/07/13 00:54:57;;;;;;;1.13;0.60;;;19.60;62.10;;;;;;4988429;28;20058;-61
2022/07/13 00:57:27;;;;;;;1.05;0.55;;;19.60;62.20;;;;;;4991940;28;20097;-62
2022/07/13 00:59:55;;;;;;;1.33;0.52;;;19.50;62.30;;;;;;4967876;28;20068;-63
2022/07/13 01:02:24;;;;;;;1.85;0.68;;;19.50;62.40;;;;;;4972453;28;20052;-63
2022/07/13 01:04:50;;;;;;;0.73;0.50;;;19.50;62.60;;;;;;4975791;28;20447;-63
2022/07/13 01:07:18;;;;;;;1.13;0.60;;;19.50;62.70;;;;;;4971492;28;20046;-62
2022/07/13 01:09:45;;;;;;;1.42;0.70;;;19.50;62.70;;;;;;4976827;28;20050;-64
2022/07/13 01:12:12;;;;;;;2.60;0.80;;;19.50;62.80;;;;;;4970359;28;20049;-64
2022/07/13 01:14:39;;;;;;;2.50;0.70;;;19.40;63.00;;;;;;4993572;28;20065;-65
2022/07/13 01:17:06;;;;;;;1.60;0.75;;;19.40;63.20;;;;;;5030414;28;20390;-64
2022/07/13 01:19:36;;;;;;;0.95;0.57;;;19.40;63.40;;;;;;5075978;28;20043;-62
2022/07/13 01:22:04;;;;;;;1.95;0.90;;;19.40;63.30;;;;;;4987713;28;20130;-64
2022/07/13 01:24:34;;;;;;;1.50;0.57;;;19.40;63.60;;;;;;4987401;28;20058;-63
2022/07/13 01:27:01;;;;;;;2.97;0.68;;;19.30;63.60;;;;;;4998007;28;20871;-63
2022/07/13 01:29:28;;;;;;;1.52;0.52;;;19.20;63.70;;;;;;4998149;28;20086;-64
2022/07/13 01:32:00;;;;;;;0.88;0.63;;;19.20;63.70;;;;;;4997469;28;20499;-62
2022/07/13 01:34:27;;;;;;;2.70;1.17;;;19.30;63.70;;;;;;4997138;28;20484;-64
2022/07/13 01:36:56;;;;;;;2.08;0.60;;;19.30;63.70;;;;;;4994738;28;20042;-63
2022/07/13 01:39:24;;;;;;;2.22;0.70;;;19.30;63.70;;;;;;4984181;28;20049;-64
2022/07/13 01:41:54;;;;;;;1.30;0.63;;;19.20;63.90;;;;;;4995912;28;20054;-63
2022/07/13 01:44:21;;;;;;;1.02;0.50;;;19.20;64.20;;;;;;4989730;28;20496;-64
2022/07/13 01:46:47;;;;;;;1.45;0.68;;;19.10;64.30;;;;;;4987459;28;20496;-62
2022/07/13 01:49:14;;;;;;;1.17;0.70;;;19.10;64.40;;;;;;4992100;28;20042;-63
2022/07/13 01:51:41;;;;;;;2.45;0.68;;;19.10;64.50;;;;;;4988149;28;20043;-62
2022/07/13 01:54:08;;;;;;;1.85;0.90;;;19.10;64.80;;;;;;5004929;28;20043;-63
2022/07/13 01:56:35;;;;;;;3.30;0.77;;;19.00;64.80;;;;;;4988566;28;20058;-63
2022/07/13 01:59:04;;;;;;;0.93;0.60;;;19.00;65.10;;;;;;4990461;28;20365;-62
2022/07/13 02:01:31;;;;;;;1.25;0.80;;;19.00;65.00;;;;;;4988457;28;20042;-62
2022/07/13 02:03:57;;;;;;;3.05;1.10;;;19.00;65.10;;;;;;4977560;28;20058;-63
2022/07/13 02:06:25;;;;;;;2.30;0.60;;;19.00;65.10;;;;;;4976490;28;20125;-63
2022/07/13 02:08:55;;;;;;;1.65;0.68;;;18.90;65.00;;;;;;4975763;28;20050;-64
2022/07/13 02:11:22;;;;;;;1.98;0.60;;;18.90;65.10;;;;;;5000423;28;20043;-64
2022/07/13 02:13:50;;;;;;;0.85;0.60;;;18.90;65.20;;;;;;4977127;28;20051;-62
2022/07/13 02:16:18;;;;;;;1.08;0.63;;;18.90;65.40;;;;;;4989621;28;20106;-63
2022/07/13 02:18:45;;;;;;;1.23;0.70;;;18.80;65.50;;;;;;4992236;28;20053;-62
2022/07/13 02:21:12;;;;;;;1.55;0.60;;;18.90;65.60;;;;;;4982401;28;20507;-63
2022/07/13 02:23:40;;;;;;;1.25;0.45;;;18.80;65.60;;;;;;4978766;28;20077;-65
2022/07/13 02:26:06;;;;;;;1.27;0.60;;;18.80;65.80;;;;;;4992237;28;20056;-64
2022/07/13 02:28:33;;;;;;;3.53;0.70;;;18.90;66.00;;;;;;4993007;28;20049;-63
2022/07/13 02:31:00;;;;;;;0.93;0.50;;;18.80;65.90;;;;;;4978304;28;20052;-63
2022/07/13 02:33:29;;;;;;;1.70;0.73;;;18.80;66.20;;;;;;4992145;28;20089;-64
2022/07/13 02:35:56;;;;;;;1.63;0.88;;;18.70;66.40;;;;;;4979613;28;20078;-65
2022/07/13 02:38:23;;;;;;;0.68;0.50;;;18.70;66.60;;;;;;4993301;28;20407;-63
2022/07/13 02:40:50;;;;;;;2.60;0.70;;;18.70;66.70;;;;;;4991627;28;20039;-64
2022/07/13 02:43:17;;;;;;;2.42;0.60;;;18.70;66.70;;;;;;4997066;28;20045;-64
2022/07/13 02:45:44;;;;;;;1.02;0.60;;;18.70;66.60;;;;;;4995346;28;20486;-63
2022/07/13 02:48:11;;;;;;;3.47;0.47;;;18.70;66.50;;;;;;4997806;28;20101;-64
2022/07/13 02:50:39;;;;;;;0.80;0.70;;;18.60;66.50;;;;;;5050010;28;20045;-65
2022/07/13 02:53:07;;;;;;;1.85;0.60;;;18.60;66.70;;;;;;5080289;28;20044;-64
2022/07/13 02:55:37;;;;;;;1.23;0.53;;;18.60;66.80;;;;;;5078425;28;20500;-64
2022/07/13 02:58:04;;;;;;;0.88;0.60;;;18.50;66.80;;;;;;4997651;28;20053;-61
2022/07/13 03:00:31;;;;;;;1.15;0.60;;;18.50;66.90;;;;;;4989255;28;20055;-64
2022/07/13 03:02:59;;;;;;;1.48;0.65;;;18.60;66.80;;;;;;4958391;28;20112;-64
2022/07/13 03:05:26;;;;;;;1.70;0.63;;;18.50;67.00;;;;;;4989735;28;20387;-63
2022/07/13 03:07:54;;;;;;;1.48;0.70;;;18.50;67.00;;;;;;4980718;28;20058;-63
2022/07/13 03:10:21;;;;;;;1.13;0.63;;;18.40;67.10;;;;;;4994924;28;20050;-63
2022/07/13 03:12:51;;;;;;;;;;;18.40;67.30;;;;;;4983327;28;20058;-63
2022/07/13 03:15:18;;;;;;;1.45;0.60;;;18.40;67.40;;;;;;4977676;28;19940;-64
2022/07/13 03:17:45;;;;;;;1.20;0.50;;;18.40;67.60;;;;;;5065036;28;20451;-64
2022/07/13 03:20:14;;;;;;;3.03;1.05;;;18.40;67.80;;;;;;5113632;27;20044;-62
2022/07/13 03:22:41;;;;;;;2.90;0.88;;;18.40;67.90;;;;;;5005239;28;20138;-63
2022/07/13 03:25:11;;;;;;;1.65;0.57;;;18.40;68.00;;;;;;5001249;28;20069;-60
2022/07/13 03:27:38;;;;;;;;;;;18.30;67.90;;;;;;4985312;28;20062;-66
2022/07/13 03:30:08;;;;;;;1.70;0.80;;;18.30;68.00;;;;;;4989020;28;19929;-62
2022/07/13 03:32:35;;;;;;;2.22;0.90;;;18.30;68.10;;;;;;4981689;28;20045;-62
2022/07/13 03:35:02;;;;;;;2.03;0.80;;;18.30;68.00;;;;;;4975392;28;20138;-61
2022/07/13 03:37:30;;;;;;;2.13;1.00;;;18.30;68.00;;;;;;4978522;28;20050;-61
2022/07/13 03:39:58;;;;;;;2.13;0.70;;;18.20;68.20;;;;;;4980252;28;20062;-61
2022/07/13 03:42:27;;;;;;;1.00;0.65;;;18.20;68.40;;;;;;4980359;28;20049;-61
2022/07/13 03:44:54;;;;;;;2.65;0.93;;;18.20;68.50;;;;;;5104676;27;20798;-61
2022/07/13 03:47:22;;;;;;;2.05;0.60;;;18.20;68.40;;;;;;5114065;27;20041;-62
2022/07/13 03:49:49;;;;;;;1.38;0.95;;;18.20;68.40;;;;;;5114586;27;20489;-62
2022/07/13 03:52:17;;;;;;;1.80;0.70;;;18.20;68.50;;;;;;5080473;28;20036;-61
2022/07/13 03:54:44;;;;;;;2.22;0.82;;;18.20;68.80;;;;;;5080890;28;20054;-63
2022/07/13 03:57:11;;;;;;;2.47;0.68;;;18.20;68.90;;;;;;5081506;28;20046;-62
2022/07/13 03:59:40;;;;;;;1.73;0.98;;;18.20;68.80;;;;;;5075696;28;20048;-63
2022/07/13 04:02:07;;;;;;;1.15;0.70;;;18.20;68.80;;;;;;5091606;28;20045;-62
2022/07/13 04:04:36;;;;;;;1.10;0.63;;;18.20;68.70;;;;;;5071067;28;20074;-62
2022/07/13 04:07:03;;;;;;;2.88;1.15;;;18.20;68.80;;;;;;5074643;28;20041;-62
2022/07/13 04:09:32;;;;;;;1.85;0.73;;;18.20;68.80;;;;;;5074904;28;20055;-62
2022/07/13 04:11:59;;;;;;;1.63;0.82;;;18.20;68.90;;;;;;5069813;28;20055;-62
2022/07/13 04:14:26;;;;;;;1.58;0.73;;;18.20;68.90;;;;;;5072094;28;20048;-63
2022/07/13 04:16:55;;;;;;;2.70;0.80;;;18.30;68.90;;;;;;5067310;28;20044;-63
2022/07/13 04:19:23;;;;;;;1.50;0.88;;;18.30;68.80;;;;;;5066417;28;20059;-62
2022/07/13 04:21:50;;;;;;;2.30;1.02;;;18.40;68.50;;;;;;5069221;28;20052;-65
2022/07/13 04:24:17;;;;;;;2.00;0.80;;;18.40;68.60;;;;;;5069094;28;20052;-63
2022/07/13 04:26:44;;;;;;;1.25;0.93;;;18.40;68.50;;;;;;5065113;28;20633;-63
2022/07/13 04:29:12;;;;;;;3.60;0.98;;;18.50;68.10;;;;;;5073309;28;20062;-63
2022/07/13 04:31:40;;;;;;;2.80;1.23;;;18.50;68.00;;;;;;5073492;28;20079;-63
2022/07/13 04:34:08;;;;;;;2.90;0.90;;;18.60;67.80;;;;;;5076684;28;20049;-64
2022/07/13 04:36:36;;;;;;;2.03;0.98;;;18.50;67.90;;;;;;5071203;28;20090;-63
2022/07/13 04:39:04;;;;;;;3.75;0.98;;;18.60;67.90;;;;;;4984685;28;20065;-64
2022/07/13 04:41:31;;;;;;;1.45;0.70;;;18.60;67.80;;;;;;4980296;28;20916;-65
2022/07/13 04:43:59;;;;;;;4.10;1.00;;;18.60;67.70;;;;;;4977164;28;20057;-62
2022/07/13 04:46:27;;;;;;;5.65;0.93;;;18.60;67.60;;;;;;4971745;28;20062;-64
2022/07/13 04:48:55;;;;;;;2.05;0.88;;;18.60;67.40;;;;;;4985653;28;20127;-64
2022/07/13 04:51:25;;;;;;;3.03;0.90;;;18.70;67.20;;;;;;4986679;28;20054;-64
2022/07/13 04:53:52;;;;;;;4.63;0.82;;;18.80;67.10;;;;;;5022905;28;20054;-62
2022/07/13 04:56:20;;;;;;;3.35;1.00;;;18.90;67.00;;;;;;5098663;27;20398;-62
2022/07/13 04:58:47;;;;;;;3.13;0.90;;;18.90;67.00;;;;;;5071738;28;20044;-64
2022/07/13 05:01:15;;;;;;;1.48;0.90;;;18.80;67.00;;;;;;5069263;28;20041;-64
2022/07/13 05:03:42;;;;;;;1.90;0.77;;;18.80;67.00;;;;;;5074652;28;20066;-63
2022/07/13 05:06:09;;;;;;;2.85;0.90;;;18.80;66.90;;;;;;5076399;28;20086;-63
2022/07/13 05:08:37;;;;;;;2.40;0.88;;;18.80;66.90;;;;;;5072992;28;20135;-62
2022/07/13 05:11:05;;;;;;;1.17;0.60;;;18.80;66.70;;;;;;4975360;28;20527;-63
2022/07/13 05:13:32;;;;;;;1.33;0.60;;;18.80;66.80;;;;;;4975784;28;20045;-63
2022/07/13 05:16:00;;;;;;;1.38;0.90;;;18.80;67.10;;;;;;4978348;28;20354;-63
2022/07/13 05:18:28;;;;;;;2.78;1.00;;;18.90;67.30;;;;;;4976711;28;20054;-64
2022/07/13 05:20:58;;;;;;;3.35;0.90;;;18.90;67.40;;;;;;4988335;28;20125;-64
2022/07/13 05:23:25;;;;;;;1.27;0.88;;;19.00;67.10;;;;;;5004074;28;20099;-63
2022/07/13 05:25:54;;;;;;;1.73;0.85;;;19.00;67.00;;;;;;4988435;28;20050;-63
2022/07/13 05:28:21;;;;;;;2.72;1.20;;;19.00;66.80;;;;;;4986149;28;20065;-64
2022/07/13 05:30:48;;;;;;;3.70;0.82;;;19.10;67.10;;;;;;5046210;28;20050;-64
2022/07/13 05:33:16;;;;;;;1.60;0.90;;;19.10;67.30;;;;;;5105299;27;20266;-63
2022/07/13 05:35:44;;;;;;;1.90;0.85;;;19.10;67.30;;;;;;5109396;27;20048;-63
2022/07/13 05:38:11;;;;;;;1.63;0.73;;;19.10;67.30;;;;;;5078729;28;20040;-63
2022/07/13 05:40:38;;;;;;;2.08;1.08;;;19.20;67.10;;;;;;5072497;27;20040;-64
2022/07/13 05:43:07;;;;;;;2.20;0.85;;;19.20;67.20;;;;;;5066830;28;20036;-63
2022/07/13 05:45:34;;;;;;;1.90;0.80;;;19.10;67.20;;;;;;5068038;28;20051;-63
2022/07/13 05:48:03;;;;;;;1.65;1.00;;;19.20;67.30;;;;;;4965801;28;20663;-64
2022/07/13 05:50:30;;;;;;;3.30;1.08;;;19.20;67.50;;;;;;5018118;28;20046;-64
2022/07/13 05:52:57;;;;;;;4.32;1.20;;;19.30;67.20;;;;;;4986333;28;20038;-62
2022/07/13 05:55:25;;;;;;;1.65;0.95;;;19.30;67.20;;;;;;5037239;28;20060;-64
2022/07/13 05:57:52;;;;;;;3.92;1.20;;;19.30;67.00;;;;;;5078368;28;20048;-63
2022/07/13 06:00:20;;;;;;;1.00;0.68;;;19.40;67.10;;;;;;5071831;28;20110;-62
2022/07/13 06:02:47;;;;;;;4.30;1.25;;;19.40;67.00;;;;;;5081682;28;20131;-61
2022/07/13 06:05:14;;;;;;;1.73;0.90;;;19.40;66.50;;;;;;5079871;28;20067;-62
2022/07/13 06:07:41;;;;;;;2.05;1.13;;;19.50;66.50;;;;;;5081400;28;20044;-64
2022/07/13 06:10:09;;;;;;;3.20;1.15;;;19.50;66.50;;;;;;5077432;28;20047;-65
2022/07/13 06:12:36;;;;;;;1.85;0.90;;;19.60;66.40;;;;;;5080915;28;20390;-64
2022/07/13 06:15:03;;;;;;;3.38;0.80;;;19.60;66.60;;;;;;5074044;28;20057;-63
2022/07/13 06:17:31;;;;;;;2.03;1.10;;;19.70;66.10;;;;;;5073640;28;20105;-64
2022/07/13 06:19:58;;;;;;;4.13;0.80;;;19.70;65.70;;;;;;5071255;28;20489;-64
2022/07/13 06:22:25;;;;;;;2.97;0.90;;;19.70;65.80;;;;;;5072475;28;20046;-63
2022/07/13 06:24:52;;;;;;;3.40;1.20;;;19.70;65.80;;;;;;5065418;28;20048;-64
2022/07/13 06:27:19;;;;;;;2.03;0.77;;;19.80;65.60;;;;;;5069115;28;20140;-63
2022/07/13 06:29:46;;;;;;;2.67;0.88;;;19.90;65.40;;;;;;5067625;28;20478;-63
2022/07/13 06:32:13;;;;;;;2.08;1.00;;;19.90;64.80;;;;;;5081279;28;20485;-63
2022/07/13 06:34:41;;;;;;;3.53;1.00;;;20.00;64.60;;;;;;5074711;28;20060;-65
2022/07/13 06:37:08;;;;;;;4.93;0.80;;;20.10;64.70;;;;;;5080715;28;20092;-63
2022/07/13 06:39:35;;;;;;;4.18;0.95;;;20.10;64.80;;;;;;5076889;28;20052;-64
2022/07/13 06:42:02;;;;;;;1.15;0.63;;;20.20;64.70;;;;;;5079957;28;20044;-65
2022/07/13 06:44:29;;;;;;;1.63;0.68;;;20.20;64.70;;;;;;5078507;28;20074;-63
2022/07/13 06:46:59;;;;;;;2.90;0.90;;;20.30;64.50;;;;;;5075677;28;20047;-65
2022/07/13 06:49:26;;;;;;;5.47;1.13;;;20.40;64.60;;;;;;5069385;28;20154;-64
2022/07/13 06:51:55;;;;;;;1.75;0.75;;;20.40;64.00;;;;;;5069323;28;20050;-63
2022/07/13 06:54:22;;;;;;;1.47;0.90;;;20.50;64.20;;;;;;5072188;28;20036;-62
2022/07/13 06:56:49;;;;;;;2.63;0.70;;;20.50;63.90;;;;;;5068882;28;20090;-63
2022/07/13 06:59:16;;;;;;;1.27;0.73;;;20.60;63.60;;;;;;5073713;28;20056;-64
2022/07/13 07:01:43;;;;;;;1.65;0.68;;;20.60;63.80;;;;;;5068077;28;20041;-65
2022/07/13 07:04:09;;;;;;;1.63;0.85;;;20.70;63.50;;;;;;5072881;28;20070;-64
2022/07/13 07:06:36;;;;;;;7.68;1.10;;;20.70;63.60;;;;;;5077055;28;20044;-62
2022/07/13 07:09:05;;;;;;;2.72;1.42;;;20.80;63.20;;;;;;5074937;28;20041;-63
2022/07/13 07:11:31;;;;;;;2.38;0.93;;;20.90;63.20;;;;;;5071295;28;22792;-63
2022/07/13 07:13:58;;;;;;;2.45;0.90;;;21.00;63.10;;;;;;5077184;28;20048;-64
2022/07/13 07:16:25;;;;;;;1.15;0.60;;;21.00;62.80;;;;;;5074173;28;20048;-62
2022/07/13 07:18:52;;;;;;;2.70;0.70;;;21.00;62.90;;;;;;5074988;28;20159;-64
2022/07/13 07:21:19;;;;;;;1.92;0.70;;;21.10;62.80;;;;;;5071865;28;20040;-63
2022/07/13 07:23:47;;;;;;;1.73;0.80;;;21.10;62.70;;;;;;5072031;28;20127;-64
2022/07/13 07:26:15;;;;;;;2.17;0.75;;;21.10;62.60;;;;;;5063184;28;20044;-63
2022/07/13 07:28:43;;;;;;;7.95;0.95;;;21.20;62.50;;;;;;5067971;28;20481;-63
2022/07/13 07:31:09;;;;;;;1.65;0.60;;;21.20;62.50;;;;;;5071337;28;20139;-63
2022/07/13 07:33:36;;;;;;;1.85;0.73;;;21.30;62.30;;;;;;5070704;28;20055;-63
2022/07/13 07:36:05;;;;;;;2.67;0.80;;;21.30;62.10;;;;;;5065052;28;20427;-63
2022/07/13 07:38:32;;;;;;;1.60;0.80;;;21.40;61.90;;;;;;5077919;28;20052;-62
2022/07/13 07:41:01;;;;;;;3.97;0.90;;;21.50;61.70;;;;;;5072046;28;20474;-62
2022/07/13 07:43:30;;;;;;;3.78;0.80;;;21.60;61.60;;;;;;5077371;28;20659;-64
2022/07/13 07:45:56;;;;;;;1.73;0.90;;;21.70;61.40;;;;;;5074546;28;20045;-65
2022/07/13 07:48:23;;;;;;;0.90;0.63;;;21.80;61.10;;;;;;5075527;28;20047;-64
2022/07/13 07:50:50;;;;;;;1.35;0.68;;;22.00;61.10;;;;;;5068600;28;20040;-65
2022/07/13 07:53:17;;;;;;;1.83;0.75;;;22.10;60.90;;;;;;5069107;28;20055;-64
2022/07/13 07:55:44;;;;;;;1.67;0.90;;;22.20;60.40;;;;;;5066871;28;20059;-65
2022/07/13 07:58:11;;;;;;;1.63;0.90;;;22.30;59.80;;;;;;5071804;28;20117;-63
2022/07/13 08:00:39;;;;;;;1.48;0.82;;;22.40;60.00;;;;;;5064812;28;20062;-66
2022/07/13 08:03:06;;;;;;;1.88;0.90;;;22.50;60.10;;;;;;5064979;28;20237;-63
2022/07/13 08:05:33;;;;;;;2.20;1.35;;;22.60;59.00;;;;;;5070404;28;20048;-64
2022/07/13 08:08:01;;;;;;;1.70;0.75;;;22.60;58.80;;;;;;5072287;28;20044;-64
2022/07/13 08:10:28;;;;;;;1.50;0.80;;;22.60;58.40;;;;;;5077743;28;20086;-62
2022/07/13 08:12:55;;;;;;;1.27;0.70;;;22.60;58.50;;;;;;5071674;28;20075;-64
2022/07/13 08:15:22;;;;;;;2.35;1.02;;;22.60;58.30;;;;;;5077433;28;20052;-63
2022/07/13 08:17:50;;;;;;;1.25;0.70;;;22.60;58.00;;;;;;5073399;28;20612;-62
2022/07/13 08:20:17;;;;;;;1.52;0.73;;;22.60;58.20;;;;;;5074933;28;20040;-65
2022/07/13 08:22:44;;;;;;;0.88;0.70;;;22.60;58.30;;;;;;5079263;28;20409;-63
2022/07/13 08:25:11;;;;;;;6.50;1.10;;;22.60;58.40;;;;;;5068003;28;20063;-63
2022/07/13 08:27:38;;;;;;;1.27;0.70;;;22.60;59.50;;;;;;5063750;28;20758;-64
2022/07/13 08:30:06;;;;;;;1.80;0.88;;;22.60;60.60;;;;;;5070122;28;20060;-63
2022/07/13 08:32:33;;;;;;;2.20;0.95;;;22.60;61.10;;;;;;5067542;28;20052;-63
2022/07/13 08:40:31;;;;;;;4.32;1.45;;;22.60;61.70;;;;;;5070478;28;20131;-64
2022/07/13 08:42:57;;;;;;;3.25;1.08;;;22.60;61.70;;;;;;5066087;28;20048;-65
2022/07/13 08:45:25;;;;;;;1.98;0.82;;;22.70;61.70;;;;;;5073997;28;21025;-63
2022/07/13 08:47:53;;;;;;;1.67;0.82;;;22.80;62.30;;;;;;5071299;28;20056;-64
2022/07/13 08:50:22;;;;;;;1.95;0.95;;;22.80;62.70;;;;;;5070103;28;20064;-64
2022/07/13 08:52:50;;;;;;;1.80;0.90;;;22.90;62.30;;;;;;5078986;28;20044;-64
2022/07/13 08:55:18;;;;;;;3.35;0.80;;;23.00;62.60;;;;;;5072996;28;20486;-63
2022/07/13 08:57:45;;;;;;;3.17;0.75;;;23.00;62.70;;;;;;5071834;28;20056;-62
2022/07/13 09:00:13;;;;;;;1.33;0.70;;;23.10;62.50;;;;;;5071706;28;20056;-63
2022/07/13 09:06:54;;;;;;;2.33;1.02;;;23.30;63.10;;;;;;4990932;28;20049;-63
2022/07/13 09:09:33;;;;;;;3.78;0.88;;;23.40;62.80;;;;;;4985983;28;20046;-62
2022/07/13 09:12:16;;;;;;;1.30;0.73;;;23.50;62.70;;;;;;4985158;28;20049;-64
2022/07/13 09:14:45;;;;;;;1.77;1.00;;;23.50;61.70;;;;;;4987150;28;20058;-63
2022/07/13 09:17:34;;;;;;;2.63;1.00;;;23.60;61.80;;;;;;4982014;28;20053;-64
2022/07/13 09:20:05;;;;;;;1.67;0.80;;;23.60;61.40;;;;;;4994439;28;20048;-64
2022/07/13 09:22:33;;;;;;;1.95;0.90;;;23.70;61.10;;;;;;4987735;28;20530;-65
2022/07/13 09:25:01;;;;;;;2.92;1.10;;;23.80;60.80;;;;;;4992639;28;20053;-63
2022/07/13 09:27:47;;;;;;;1.58;0.70;;;23.90;60.20;;;;;;4992222;28;20054;-63
2022/07/13 09:30:21;;;;;;;1.77;1.02;;;24.00;60.00;;;;;;5028916;28;20046;-63
2022/07/13 09:32:48;;;;;;;2.00;0.80;;;24.10;59.80;;;;;;4991423;28;20082;-65
2022/07/13 09:35:15;;;;;;;2.97;1.15;;;24.20;59.90;;;;;;4995730;28;20038;-65
2022/07/13 09:37:44;;;;;;;4.15;1.05;;;24.20;59.70;;;;;;4994862;28;20545;-64
2022/07/13 09:40:17;;;;;;;3.35;0.90;;;24.30;59.50;;;;;;5026313;28;20054;-64
2022/07/13 09:42:45;;;;;;;2.58;1.20;;;24.40;59.00;;;;;;4982633;28;20053;-64
2022/07/13 09:48:00;;;;;;;2.20;1.13;;;24.60;58.80;;;;;;4992305;28;20058;-62
2022/07/13 09:50:38;;;;;;;2.03;0.97;;;24.60;58.00;;;;;;4996497;28;20046;-64
2022/07/13 09:53:25;;;;;;;3.58;1.27;;;24.60;57.90;;;;;;4989298;28;20049;-62
2022/07/13 09:55:53;;;;;;;2.15;1.10;;;24.60;57.20;;;;;;4994465;28;20133;-64
2022/07/13 09:58:24;;;;;;;1.60;0.82;;;24.70;57.20;;;;;;4999633;28;20057;-64
2022/07/13 10:00:51;;;;;;;3.92;0.90;;;24.80;56.70;;;;;;4989250;28;20142;-65
2022/07/13 10:03:19;;;;;;;1.83;0.80;;;24.80;56.00;;;;;;4995657;28;20038;-63
2022/07/13 10:05:46;;;;;;;1.33;0.93;;;24.90;55.90;;;;;;4998117;28;20133;-63
2022/07/13 10:08:16;;;;;;;1.92;1.00;;;25.10;55.70;;;;;;4985533;28;20050;-63
2022/07/13 10:10:44;;;;;;;3.92;1.00;;;25.30;55.60;;;;;;4985258;28;20046;-64
2022/07/13 10:13:12;;;;;;;3.33;1.50;;;25.40;55.10;;;;;;4986043;28;20426;-62
2022/07/13 10:15:40;;;;;;;3.00;1.27;;;25.50;54.80;;;;;;4996403;28;20054;-62
2022/07/13 10:18:09;;;;;;;1.63;0.98;;;25.50;54.60;;;;;;4981339;28;20087;-64
2022/07/13 10:20:38;;;;;;;1.60;0.88;;;25.50;54.50;;;;;;4992005;28;20050;-64
2022/07/13 10:23:06;;;;;;;6.07;2.28;;;25.60;54.40;;;;;;4999023;28;20046;-62
2022/07/13 10:25:45;;;;;;;3.35;1.80;;;25.60;54.30;;;;;;4988692;28;20069;-62
2022/07/13 10:28:12;;;;;;;8.55;3.28;;;25.60;53.20;;;;;;4989677;28;20077;-63
2022/07/13 10:30:40;;;;;;;7.03;3.90;;;25.60;53.60;;;;;;4994658;28;20496;-63
2022/07/13 10:33:20;;;;;;;5.45;3.00;;;25.60;53.10;;;;;;4993412;28;20062;-63
2022/07/13 10:35:49;;;;;;;9.70;4.78;;;25.60;53.20;;;;;;4997822;28;20587;-63
2022/07/13 10:38:18;;;;;;;7.00;3.25;;;25.60;52.80;;;;;;4998658;28;20042;-64
2022/07/13 10:40:46;;;;;;;5.10;2.00;;;25.60;52.70;;;;;;5001085;28;20054;-63
2022/07/13 10:43:20;;;;;;;4.50;2.03;;;25.70;52.30;;;;;;5005065;28;20049;-63
2022/07/13 10:45:52;;;;;;;4.65;2.13;;;25.80;52.40;;;;;;4997322;28;20046;-64
2022/07/13 10:48:42;;;;;;;3.88;1.40;;;25.80;51.90;;;;;;4997853;28;20054;-63
2022/07/13 10:51:20;;;;;;;2.65;1.10;;;25.90;51.50;;;;;;5003790;28;20046;-62
2022/07/13 10:54:04;;;;;;;2.92;1.33;;;25.90;51.30;;;;;;5000602;28;20407;-64
2022/07/13 10:56:33;;;;;;;2.63;1.23;;;25.90;51.00;;;;;;4996718;28;20058;-61
2022/07/13 10:59:01;;;;;;;2.35;1.30;;;26.00;50.80;;;;;;5019850;28;20049;-63
2022/07/13 11:01:39;;;;;;;2.47;1.10;;;26.00;50.80;;;;;;4991143;28;20054;-61
2022/07/13 11:04:07;;;;;;;3.20;1.10;;;26.10;50.50;;;;;;4981364;28;20046;-65
2022/07/13 11:06:34;;;;;;;3.92;1.20;;;26.20;50.10;;;;;;4998742;28;20058;-64
2022/07/13 11:09:14;;;;;;;3.78;1.05;;;26.30;50.20;;;;;;4995260;28;20046;-63
2022/07/13 11:11:46;;;;;;;;;;;26.30;49.70;;;;;;4988462;28;20077;-63
2022/07/13 11:14:47;;;;;;;1.95;0.77;;;26.40;49.60;;;;;;4994143;28;19975;-62
2022/07/13 11:17:16;;;;;;;3.47;1.25;;;26.50;49.50;;;;;;4997719;28;20070;-63
2022/07/13 11:19:57;;;;;;;1.35;0.75;;;26.60;49.00;;;;;;4997474;28;20050;-62
2022/07/13 11:22:25;;;;;;;2.78;0.65;;;26.60;48.50;;;;;;4995834;28;20073;-64
2022/07/13 11:25:15;;;;;;;5.30;1.38;;;26.70;48.60;;;;;;4999854;28;20054;-62
2022/07/13 11:27:55;;;;;;;2.63;0.93;;;26.90;48.50;;;;;;5049698;28;20052;-62
2022/07/13 11:30:28;;;;;;;2.72;1.25;;;27.00;48.00;;;;;;5073115;28;20044;-67
2022/07/13 11:32:55;;;;;;;2.70;1.45;;;27.10;48.10;;;;;;5069456;28;20482;-61
2022/07/13 11:35:22;;;;;;;2.70;1.48;;;27.10;47.80;;;;;;5071167;28;20047;-64
2022/07/13 11:37:50;;;;;;;5.25;1.90;;;27.10;47.90;;;;;;5079143;28;20086;-64
2022/07/13 11:40:30;;;;;;;5.97;2.30;;;27.00;47.70;;;;;;5075682;28;20049;-62
2022/07/13 11:43:01;;;;;;;6.30;3.00;;;27.00;47.30;;;;;;5070693;28;20060;-63
2022/07/13 11:45:31;;;;;;;7.28;3.10;;;27.00;47.30;;;;;;5069234;28;20048;-65
2022/07/13 11:47:59;;;;;;;5.68;2.60;;;27.00;47.20;;;;;;5063930;28;20048;-62
2022/07/13 11:50:47;;;;;;;5.18;2.92;;;27.30;47.00;;;;;;5067966;28;20064;-64
2022/07/13 11:53:26;;;;;;;6.97;2.47;;;27.50;46.80;;;;;;4959723;28;20065;-62
2022/07/13 11:55:55;;;;;;;4.70;2.10;;;27.60;46.60;;;;;;4976985;28;20489;-62
2022/07/13 11:58:25;;;;;;;6.05;2.33;;;27.70;46.30;;;;;;4978502;28;20053;-62
2022/07/13 12:00:52;;;;;;;6.70;2.60;;;27.80;46.10;;;;;;4972788;28;20051;-64
2022/07/13 12:03:31;;;;;;;5.03;2.50;;;28.00;45.60;;;;;;4976733;28;20449;-65
2022/07/13 12:06:03;;;;;;;4.93;2.08;;;28.20;45.50;;;;;;4977369;28;20038;-62
2022/07/13 12:08:33;;;;;;;4.18;2.17;;;28.20;45.30;;;;;;4976981;28;20166;-62
2022/07/13 12:11:02;;;;;;;5.32;2.67;;;28.20;44.80;;;;;;4977451;28;20058;-64
2022/07/13 12:13:32;;;;;;;4.70;2.20;;;28.20;44.50;;;;;;4974951;28;20058;-63
2022/07/13 12:16:00;;;;;;;5.78;2.60;;;28.40;44.50;;;;;;4975784;28;20130;-63
2022/07/13 12:18:27;;;;;;;3.95;1.73;;;28.40;44.70;;;;;;4975458;28;20046;-62
2022/07/13 12:20:54;;;;;;;3.05;1.60;;;28.40;44.30;;;;;;4975376;28;20050;-63
2022/07/13 12:23:21;;;;;;;2.55;1.05;;;28.50;44.30;;;;;;4976933;28;20055;-63
2022/07/13 12:25:48;;;;;;;4.63;1.02;;;28.50;44.00;;;;;;4989259;28;20553;-64
2022/07/13 12:28:15;;;;;;;2.70;0.88;;;28.60;43.80;;;;;;4975091;28;20038;-63
2022/07/13 12:30:59;;;;;;;3.67;1.00;;;28.70;43.10;;;;;;4971500;28;20038;-64
2022/07/13 12:33:26;;;;;;;5.90;0.82;;;28.80;42.80;;;;;;4978049;28;20046;-63
2022/07/13 12:36:11;;;;;;;2.40;0.88;;;28.70;42.50;;;;;;4964284;28;20136;-65
2022/07/13 12:44:36;;;;;;;1.88;0.82;;;28.40;42.60;;;;;;5006268;23;20052;-68
2022/07/13 12:47:05;;;;;;;1.05;0.80;;;28.50;42.30;;;;;;4891446;29;20055;-67
2022/07/13 12:49:36;;;;;;;1.55;0.70;;;28.50;43.00;;;;;;4887736;29;20470;-66
2022/07/13 12:52:05;;;;;;;1.20;0.63;;;28.60;42.50;;;;;;4893880;29;20048;-68
2022/07/13 12:54:49;;;;;;;1.50;0.60;;;28.60;42.00;;;;;;4897503;29;20060;-67
2022/07/13 12:57:18;;;;;;;1.95;0.82;;;28.50;41.80;;;;;;4892717;29;20418;-67
2022/07/13 12:59:59;;;;;;;2.20;0.68;;;28.50;41.80;;;;;;4890641;29;20113;-67
2022/07/13 13:02:27;;;;;;;2.30;0.85;;;28.50;42.00;;;;;;4884018;29;20056;-69
2022/07/13 13:04:54;;;;;;;1.52;0.80;;;28.50;41.40;;;;;;4893938;29;20063;-67
2022/07/13 13:07:21;;;;;;;1.00;0.77;;;28.50;41.80;;;;;;4893401;29;20131;-69
2022/07/13 13:09:48;;;;;;;1.33;0.80;;;28.50;42.00;;;;;;4891707;29;20054;-67
2022/07/13 13:12:15;;;;;;;1.38;0.60;;;28.50;42.20;;;;;;4893269;29;20056;-68
2022/07/13 13:14:42;;;;;;;1.40;0.80;;;28.40;42.10;;;;;;4885568;29;20053;-67